createdAt,value
2018-06-21T00:00:20.470Z,16.71
2018-06-21T00:02:52.963Z,16.64
2018-06-21T00:08:02.234Z,16.66
2018-06-21T00:10:34.642Z,16.56
2018-06-21T00:13:07.429Z,16.49
2018-06-21T00:15:39.512Z,16.49
2018-06-21T00:18:12.213Z,16.49
2018-06-21T00:20:43.450Z,16.54
2018-06-21T00:23:17.635Z,16.53
2018-06-21T00:28:27.928Z,16.65
2018-06-21T00:33:43.212Z,16.80
2018-06-21T00:36:16.429Z,16.91
2018-06-21T00:38:48.715Z,16.77
2018-06-21T00:41:21.744Z,16.87
2018-06-21T00:43:53.434Z,16.81
2018-06-21T00:46:25.586Z,16.61
2018-06-21T00:48:58.065Z,16.50
2018-06-21T00:51:31.308Z,16.57
2018-06-21T00:54:03.672Z,16.43
2018-06-21T00:56:37.182Z,16.32
2018-06-21T01:01:46.026Z,16.25
2018-06-21T01:06:55.333Z,16.33
2018-06-21T01:09:28.672Z,16.28
2018-06-21T01:14:37.586Z,16.35
2018-06-21T01:17:10.249Z,16.22
2018-06-21T01:19:42.730Z,16.18
2018-06-21T01:22:16.540Z,16.18
2018-06-21T01:24:48.769Z,16.29
2018-06-21T01:27:21.980Z,16.19
2018-06-21T01:29:53.958Z,16.07
2018-06-21T01:35:01.336Z,16.08
2018-06-21T01:37:35.128Z,16.01
2018-06-21T01:40:08.030Z,15.91
2018-06-21T01:42:40.611Z,15.97
2018-06-21T01:45:15.232Z,16.04
2018-06-21T01:47:49.378Z,16.06
2018-06-21T01:52:58.471Z,16.15
2018-06-21T01:58:05.070Z,16.37
2018-06-21T02:00:34.173Z,16.44
2018-06-21T02:03:03.498Z,16.41
2018-06-21T02:14:08.608Z,16.41
2018-06-21T02:16:37.632Z,16.29
2018-06-21T02:19:07.940Z,16.28
2018-06-21T02:21:38.356Z,16.05
2018-06-21T02:24:07.399Z,15.94
2018-06-21T02:31:48.185Z,16.10
2018-06-21T02:36:53.281Z,16.07
2018-06-21T02:41:58.208Z,16.22
2018-06-21T02:44:29.450Z,16.22
2018-06-21T02:46:58.518Z,16.10
2018-06-21T02:49:27.591Z,16.02
2018-06-21T02:51:56.674Z,16.03
2018-06-21T02:57:02.782Z,15.95
2018-06-21T02:59:32.928Z,15.83
2018-06-21T03:02:04.089Z,15.82
2018-06-21T03:07:09.063Z,15.85
2018-06-21T03:09:38.105Z,15.95
2018-06-21T03:12:07.165Z,15.81
2018-06-21T03:14:36.226Z,15.77
2018-06-21T03:17:07.390Z,15.72
2018-06-21T03:24:48.061Z,15.70
2018-06-21T03:27:17.129Z,15.63
2018-06-21T03:29:49.180Z,15.72
2018-06-21T03:32:18.893Z,15.69
2018-06-21T03:34:48.906Z,15.68
2018-06-21T03:37:17.965Z,15.69
2018-06-21T03:39:47.149Z,15.69
2018-06-21T03:42:16.375Z,15.86
2018-06-21T03:44:46.416Z,15.89
2018-06-21T03:47:15.465Z,15.93
2018-06-21T03:49:44.708Z,15.99
2018-06-21T03:52:13.809Z,16.11
2018-06-21T03:54:42.850Z,16.20
2018-06-21T03:57:11.929Z,16.25
2018-06-21T04:02:16.701Z,16.35
2018-06-21T04:04:45.966Z,16.45
2018-06-21T04:07:15.944Z,16.39
2018-06-21T04:09:45.033Z,16.42
2018-06-21T04:12:14.470Z,16.51
2018-06-21T04:14:43.861Z,16.52
2018-06-21T04:17:12.920Z,16.66
2018-06-21T04:19:41.983Z,16.70
2018-06-21T04:22:11.217Z,16.87
2018-06-21T04:24:40.311Z,16.92
2018-06-21T04:27:09.353Z,16.96
2018-06-21T04:29:38.430Z,17.02
2018-06-21T04:32:07.732Z,17.07
2018-06-21T04:34:37.702Z,17.15
2018-06-21T04:37:07.678Z,17.33
2018-06-21T04:39:36.750Z,17.35
2018-06-21T04:42:06.759Z,17.43
2018-06-21T04:47:11.766Z,17.74
2018-06-21T04:49:41.251Z,17.85
2018-06-21T04:52:10.316Z,17.95
2018-06-21T04:54:39.381Z,18.10
2018-06-21T04:57:08.774Z,18.26
2018-06-21T04:59:37.816Z,18.40
2018-06-21T05:02:06.871Z,18.57
2018-06-21T05:04:36.333Z,18.72
2018-06-21T05:09:41.115Z,18.96
2018-06-21T05:12:10.251Z,19.12
2018-06-21T05:14:40.205Z,19.20
2018-06-21T05:17:09.263Z,19.30
2018-06-21T05:19:38.444Z,19.41
2018-06-21T05:22:07.743Z,19.56
2018-06-21T05:24:36.829Z,19.66
2018-06-21T05:27:05.892Z,19.73
2018-06-21T05:29:35.050Z,19.85
2018-06-21T05:32:04.162Z,20.04
2018-06-21T05:34:33.195Z,20.16
2018-06-21T05:37:02.360Z,20.28
2018-06-21T05:39:31.415Z,20.41
2018-06-21T05:42:00.457Z,20.46
2018-06-21T05:44:31.969Z,20.61
2018-06-21T05:52:15.568Z,21.03
2018-06-21T05:54:51.639Z,21.14
2018-06-21T05:57:24.756Z,21.26
2018-06-21T05:59:56.524Z,21.40
2018-06-21T06:02:28.325Z,21.48
2018-06-21T06:05:13.372Z,21.57
2018-06-21T06:07:47.987Z,21.67
2018-06-21T06:10:19.751Z,21.72
2018-06-21T06:12:55.080Z,21.85
2018-06-21T06:15:25.978Z,21.93
2018-06-21T06:20:33.935Z,22.17
2018-06-21T06:25:45.396Z,22.43
2018-06-21T06:30:54.313Z,22.60
2018-06-21T06:36:05.246Z,22.98
2018-06-21T06:38:38.709Z,23.33
2018-06-21T06:41:10.515Z,23.52
2018-06-21T06:43:42.574Z,23.67
2018-06-21T06:46:17.170Z,24.08
2018-06-21T06:48:48.035Z,24.16
2018-06-21T06:51:29.780Z,24.23
2018-06-21T06:54:09.313Z,23.91
2018-06-21T06:56:40.505Z,23.80
2018-06-21T06:59:24.044Z,23.78
2018-06-21T07:01:56.446Z,23.86
2018-06-21T07:04:31.880Z,23.75
2018-06-21T07:07:04.026Z,24.06
2018-06-21T07:09:38.587Z,24.31
2018-06-21T07:12:09.201Z,24.32
2018-06-21T07:14:42.255Z,24.35
2018-06-21T07:17:13.492Z,24.33
2018-06-21T07:19:46.294Z,24.33
2018-06-21T07:22:16.818Z,24.38
2018-06-21T07:24:52.341Z,24.48
2018-06-21T07:27:25.157Z,24.87
2018-06-21T07:35:10.081Z,24.95
2018-06-21T07:37:53.453Z,24.96
2018-06-21T07:40:25.881Z,25.12
2018-06-21T07:43:03.649Z,25.47
2018-06-21T07:45:37.725Z,25.35
2018-06-21T07:48:10.600Z,25.36
2018-06-21T07:50:42.209Z,26.04
2018-06-21T07:53:14.464Z,26.65
2018-06-21T07:55:46.628Z,26.82
2018-06-21T07:58:19.745Z,26.53
2018-06-21T08:00:52.130Z,26.83
2018-06-21T08:03:25.060Z,26.54
2018-06-21T08:05:57.431Z,26.85
2018-06-21T08:08:30.665Z,27.26
2018-06-21T08:13:40.775Z,27.23
2018-06-21T08:16:13.516Z,26.77
2018-06-21T08:19:00.027Z,26.93
2018-06-21T08:21:30.471Z,27.17
2018-06-21T08:24:04.224Z,27.20
2018-06-21T08:26:41.217Z,27.65
2018-06-21T08:29:12.817Z,27.31
2018-06-21T08:31:46.134Z,27.32
2018-06-21T08:34:18.940Z,27.62
2018-06-21T08:36:56.852Z,27.63
2018-06-21T08:39:31.383Z,27.88
2018-06-21T08:42:04.707Z,27.96
2018-06-21T08:44:37.335Z,28.05
2018-06-21T08:47:09.124Z,28.30
2018-06-21T08:49:41.784Z,28.20
2018-06-21T08:52:12.315Z,27.94
2018-06-21T08:54:44.154Z,27.34
2018-06-21T08:57:16.449Z,26.95
2018-06-21T08:59:48.432Z,26.86
2018-06-21T09:02:20.884Z,26.83
2018-06-21T09:07:31.585Z,27.29
2018-06-21T09:10:04.482Z,27.47
2018-06-21T09:15:11.663Z,28.06
2018-06-21T09:20:21.378Z,28.81
2018-06-21T09:22:56.599Z,28.68
2018-06-21T09:25:44.391Z,28.19
2018-06-21T09:28:14.591Z,28.22
2018-06-21T09:30:47.568Z,28.03
2018-06-21T09:33:19.197Z,27.33
2018-06-21T09:35:50.949Z,28.01
2018-06-21T09:38:21.145Z,29.35
2018-06-21T09:43:32.046Z,30.02
2018-06-21T09:46:01.431Z,31.35
2018-06-21T09:48:30.668Z,31.27
2018-06-21T09:51:01.200Z,31.91
2018-06-21T09:53:30.269Z,30.82
2018-06-21T09:56:00.298Z,29.83
2018-06-21T09:58:29.372Z,29.59
2018-06-21T10:00:58.663Z,29.29
2018-06-21T10:03:32.902Z,29.80
2018-06-21T10:06:01.959Z,31.00
2018-06-21T10:08:46.429Z,31.49
2018-06-21T10:11:15.473Z,32.02
2018-06-21T10:13:50.307Z,32.29
2018-06-21T10:16:19.361Z,31.96
2018-06-21T10:18:48.414Z,31.30
2018-06-21T10:21:17.473Z,31.50
2018-06-21T10:23:51.111Z,31.58
2018-06-21T10:26:21.126Z,31.73
2018-06-21T10:28:51.144Z,32.70
2018-06-21T10:31:21.280Z,32.69
2018-06-21T10:33:50.341Z,32.76
2018-06-21T10:39:07.088Z,32.07
2018-06-21T10:41:36.282Z,31.74
2018-06-21T10:44:05.309Z,33.21
2018-06-21T10:46:34.379Z,33.73
2018-06-21T10:49:04.593Z,33.02
2018-06-21T10:51:33.808Z,32.42
2018-06-21T10:54:03.551Z,33.32
2018-06-21T10:56:33.516Z,33.16
2018-06-21T10:59:17.946Z,33.95
2018-06-21T11:04:27.317Z,33.03
2018-06-21T11:06:56.601Z,31.57
2018-06-21T11:09:25.645Z,31.28
2018-06-21T11:11:54.701Z,30.44
2018-06-21T11:14:23.865Z,31.13
2018-06-21T11:16:52.932Z,33.22
2018-06-21T11:19:22.860Z,32.09
2018-06-21T11:21:55.712Z,32.15
2018-06-21T11:24:24.749Z,32.60
2018-06-21T11:26:54.064Z,33.41
2018-06-21T11:29:23.167Z,31.94
2018-06-21T11:32:01.210Z,31.21
2018-06-21T11:34:30.316Z,30.33
2018-06-21T11:37:06.738Z,31.13
2018-06-21T11:39:35.829Z,31.89
2018-06-21T11:42:06.127Z,33.33
2018-06-21T11:44:36.044Z,33.20
2018-06-21T11:47:06.650Z,31.74
2018-06-21T11:49:36.073Z,31.01
2018-06-21T11:52:06.330Z,29.87
2018-06-21T11:54:36.290Z,29.39
2018-06-21T11:59:41.865Z,28.07
2018-06-21T12:02:11.642Z,28.03
2018-06-21T12:04:44.446Z,28.83
2018-06-21T12:07:14.609Z,28.64
2018-06-21T12:12:19.729Z,27.44
2018-06-21T12:14:58.760Z,26.88
2018-06-21T12:17:34.817Z,26.29
2018-06-21T12:20:07.003Z,25.23
2018-06-21T12:22:44.731Z,24.12
2018-06-21T12:25:24.041Z,23.88
2018-06-21T12:27:53.637Z,23.90
2018-06-21T12:30:24.922Z,24.08
2018-06-21T12:35:31.215Z,25.61
2018-06-21T12:38:01.052Z,27.66
2018-06-21T12:40:30.274Z,29.51
2018-06-21T12:43:00.296Z,30.40
2018-06-21T12:45:30.700Z,31.59
2018-06-21T12:48:07.151Z,31.72
2018-06-21T12:53:12.561Z,31.07
2018-06-21T12:58:25.011Z,34.50
2018-06-21T13:01:06.838Z,35.71
2018-06-21T13:04:01.434Z,36.25
2018-06-21T13:06:30.474Z,36.45
2018-06-21T13:14:21.980Z,33.31
2018-06-21T13:19:43.583Z,30.76
2018-06-21T13:22:12.644Z,28.67
2018-06-21T13:27:17.502Z,24.71
2018-06-21T13:29:47.522Z,23.79
2018-06-21T13:34:53.382Z,23.41
2018-06-21T13:37:22.423Z,22.65
2018-06-21T13:39:52.502Z,22.58
2018-06-21T13:42:21.552Z,22.59
2018-06-21T13:44:54.927Z,22.64
2018-06-21T13:47:24.174Z,22.78
2018-06-21T13:49:53.201Z,22.94
2018-06-21T13:52:31.496Z,23.19
2018-06-21T13:55:04.483Z,23.63
2018-06-21T13:57:45.413Z,23.81
2018-06-21T14:00:18.459Z,24.28
2018-06-21T14:02:51.024Z,25.75
2018-06-21T14:05:24.282Z,26.98
2018-06-21T14:07:57.864Z,28.03
2018-06-21T14:10:39.774Z,28.27
2018-06-21T14:13:12.014Z,30.08
2018-06-21T14:15:44.638Z,31.79
2018-06-21T14:18:13.677Z,33.00
2018-06-21T14:20:42.778Z,33.46
2018-06-21T14:23:11.787Z,33.75
2018-06-21T14:25:41.793Z,33.86
2018-06-21T14:28:11.037Z,34.44
2018-06-21T14:30:40.090Z,34.00
2018-06-21T14:33:09.184Z,33.58
2018-06-21T14:35:38.287Z,31.02
2018-06-21T14:38:07.349Z,29.27
2018-06-21T14:40:36.430Z,28.03
2018-06-21T14:43:05.578Z,27.09
2018-06-21T14:45:36.025Z,26.46
2018-06-21T14:48:05.114Z,26.08
2018-06-21T14:50:34.136Z,25.77
2018-06-21T14:53:03.549Z,25.78
2018-06-21T14:55:32.621Z,25.79
2018-06-21T14:58:02.065Z,25.67
2018-06-21T15:00:31.118Z,25.61
2018-06-21T15:03:01.054Z,25.66
2018-06-21T15:05:35.829Z,26.01
2018-06-21T15:08:05.138Z,26.95
2018-06-21T15:10:34.209Z,28.99
2018-06-21T15:13:03.287Z,30.30
2018-06-21T15:15:32.522Z,29.96
2018-06-21T15:18:01.598Z,28.37
2018-06-21T15:20:31.561Z,27.89
2018-06-21T15:23:00.767Z,27.54
2018-06-21T15:25:31.291Z,27.72
2018-06-21T15:28:00.332Z,27.89
2018-06-21T15:33:05.217Z,29.77
2018-06-21T15:35:34.340Z,29.70
2018-06-21T15:38:03.530Z,28.80
2018-06-21T15:40:33.307Z,27.67
2018-06-21T15:43:10.274Z,27.09
2018-06-21T15:45:39.534Z,26.74
2018-06-21T15:53:20.149Z,27.62
2018-06-21T15:55:52.554Z,27.40
2018-06-21T15:58:21.638Z,26.59
2018-06-21T16:00:50.672Z,26.39
2018-06-21T16:03:19.724Z,27.01
2018-06-21T16:05:53.768Z,27.71
2018-06-21T16:08:22.811Z,29.67
2018-06-21T16:11:04.367Z,31.23
2018-06-21T16:13:33.542Z,29.96
2018-06-21T16:18:38.446Z,28.58
2018-06-21T16:23:43.273Z,29.27
2018-06-21T16:26:12.363Z,30.55
2018-06-21T16:28:41.402Z,30.82
2018-06-21T16:33:46.246Z,28.38
2018-06-21T16:36:18.675Z,27.14
2018-06-21T16:38:56.404Z,26.83
2018-06-21T16:41:25.545Z,26.57
2018-06-21T16:44:02.137Z,25.98
2018-06-21T16:46:31.209Z,25.75
2018-06-21T16:49:01.996Z,25.59
2018-06-21T16:51:31.054Z,25.76
2018-06-21T16:56:46.598Z,26.68
2018-06-21T17:02:01.607Z,27.28
2018-06-21T17:04:30.655Z,26.78
2018-06-21T17:09:35.467Z,27.12
2018-06-21T17:12:04.501Z,26.40
2018-06-21T17:14:34.181Z,26.04
2018-06-21T17:17:03.245Z,26.10
2018-06-21T17:19:32.293Z,25.74
2018-06-21T17:22:01.496Z,25.41
2018-06-21T17:24:34.065Z,24.93
2018-06-21T17:27:03.130Z,24.88
2018-06-21T17:29:32.181Z,24.79
2018-06-21T17:32:03.151Z,24.63
2018-06-21T17:34:33.156Z,24.88
2018-06-21T17:37:03.352Z,24.53
2018-06-21T17:39:40.737Z,24.44
2018-06-21T17:42:09.963Z,24.22
2018-06-21T17:44:39.022Z,24.24
2018-06-21T17:47:08.070Z,24.08
2018-06-21T17:49:38.279Z,24.22
2018-06-21T17:52:07.365Z,24.18
2018-06-21T17:57:12.369Z,24.20
2018-06-21T17:59:41.415Z,24.14
2018-06-21T18:02:10.466Z,24.14
2018-06-21T18:04:39.603Z,23.92
2018-06-21T18:07:08.656Z,23.71
2018-06-21T18:12:13.536Z,23.46
2018-06-21T18:14:42.615Z,23.33
2018-06-21T18:19:47.503Z,23.25
2018-06-21T18:22:16.637Z,23.30
2018-06-21T18:24:45.897Z,23.35
2018-06-21T18:27:14.984Z,23.19
2018-06-21T18:29:44.041Z,22.87
2018-06-21T18:32:14.499Z,22.81
2018-06-21T18:34:43.565Z,22.54
2018-06-21T18:37:14.630Z,22.34
2018-06-21T18:39:43.693Z,22.37
2018-06-21T18:42:13.099Z,22.39
2018-06-21T18:44:43.233Z,22.38
2018-06-21T18:47:12.268Z,22.32
2018-06-21T18:49:41.321Z,22.20
2018-06-21T18:52:10.469Z,22.10
2018-06-21T18:54:39.519Z,21.82
2018-06-21T18:57:08.573Z,21.54
2018-06-21T18:59:37.909Z,21.60
2018-06-21T19:02:06.969Z,21.41
2018-06-21T19:04:36.083Z,21.42
2018-06-21T19:07:06.189Z,21.43
2018-06-21T19:12:32.630Z,21.23
2018-06-21T19:15:01.913Z,21.21
2018-06-21T19:20:06.715Z,21.05
2018-06-21T19:22:35.868Z,21.03
2018-06-21T19:25:04.976Z,20.89
2018-06-21T19:27:33.987Z,20.91
2018-06-21T19:30:03.736Z,20.90
2018-06-21T19:32:32.819Z,20.81
2018-06-21T19:35:01.869Z,20.78
2018-06-21T19:37:31.910Z,20.67
2018-06-21T19:40:02.101Z,20.46
2018-06-21T19:42:31.159Z,20.44
2018-06-21T19:45:00.214Z,20.59
2018-06-21T19:50:05.077Z,20.37
2018-06-21T19:52:35.102Z,20.31
2018-06-21T19:55:04.294Z,20.33
2018-06-21T19:57:35.842Z,20.27
2018-06-21T20:00:04.948Z,20.17
2018-06-21T20:02:33.993Z,20.21
2018-06-21T20:05:03.157Z,19.95
2018-06-21T20:07:32.347Z,19.95
2018-06-21T20:10:01.389Z,19.78
2018-06-21T20:15:06.234Z,19.74
2018-06-21T20:20:11.001Z,19.84
2018-06-21T20:22:40.078Z,19.72
2018-06-21T20:25:09.337Z,19.79
2018-06-21T20:27:38.613Z,19.58
2018-06-21T20:30:07.672Z,19.56
2018-06-21T20:32:36.725Z,19.47
2018-06-21T20:35:05.827Z,19.48
2018-06-21T20:37:34.884Z,19.45
2018-06-21T20:40:03.929Z,19.48
2018-06-21T20:42:33.126Z,19.48
2018-06-21T20:45:02.276Z,19.50
2018-06-21T20:50:07.602Z,19.40
2018-06-21T20:52:36.667Z,19.42
2018-06-21T20:55:05.721Z,19.30
2018-06-21T20:57:35.119Z,19.17
2018-06-21T21:00:04.165Z,19.14
2018-06-21T21:02:33.235Z,19.17
2018-06-21T21:05:02.284Z,18.97
2018-06-21T21:07:31.336Z,19.05
2018-06-21T21:10:00.387Z,18.97
2018-06-21T21:12:30.449Z,19.05
2018-06-21T21:14:59.548Z,19.00
2018-06-21T21:17:32.432Z,18.62
2018-06-21T21:20:01.710Z,18.41
2018-06-21T21:22:30.762Z,18.41
2018-06-21T21:24:59.830Z,18.60
2018-06-21T21:27:29.525Z,18.59
2018-06-21T21:29:58.595Z,18.41
2018-06-21T21:32:27.651Z,18.42
2018-06-21T21:34:56.893Z,18.37
2018-06-21T21:37:26.185Z,18.21
2018-06-21T21:47:43.218Z,18.07
2018-06-21T21:50:12.278Z,18.04
2018-06-21T21:52:41.392Z,18.10
2018-06-21T21:55:10.738Z,18.07
2018-06-21T21:57:39.786Z,17.90
2018-06-21T22:00:08.856Z,17.85
2018-06-21T22:02:43.979Z,17.85
2018-06-21T22:05:14.531Z,17.83
2018-06-21T22:07:45.541Z,17.75
2018-06-21T22:10:16.699Z,17.64
2018-06-21T22:12:48.717Z,17.60
2018-06-21T22:15:19.637Z,17.48
2018-06-21T22:20:27.659Z,17.34
2018-06-21T22:23:00.349Z,17.36
2018-06-21T22:25:33.317Z,17.32
2018-06-21T22:30:43.759Z,17.35
2018-06-21T22:33:14.949Z,17.22
2018-06-21T22:35:45.625Z,17.28
2018-06-21T22:38:16.692Z,17.14
2018-06-21T22:40:49.945Z,17.15
2018-06-21T22:43:21.188Z,17.09
2018-06-21T22:45:52.909Z,17.01
2018-06-21T22:48:24.106Z,16.90
2018-06-21T22:50:56.319Z,16.81
2018-06-21T22:53:29.143Z,16.75
2018-06-21T22:56:03.172Z,16.72
2018-06-21T22:58:36.037Z,16.64
2018-06-21T23:01:08.768Z,16.56
2018-06-21T23:03:41.784Z,16.55
2018-06-21T23:06:14.650Z,16.61
2018-06-21T23:08:47.521Z,16.71
2018-06-21T23:11:19.423Z,16.54
2018-06-21T23:16:27.607Z,16.28
2018-06-21T23:21:37.704Z,16.23
2018-06-21T23:24:09.558Z,16.10
2018-06-21T23:26:43.164Z,15.95
2018-06-21T23:29:15.916Z,15.97
2018-06-21T23:34:25.054Z,15.87
2018-06-21T23:36:58.652Z,15.92
2018-06-21T23:39:33.592Z,15.90
2018-06-21T23:42:08.218Z,15.83
2018-06-21T23:44:41.986Z,15.82
2018-06-21T23:47:14.217Z,15.77
2018-06-21T23:49:46.827Z,15.84
2018-06-21T23:52:19.739Z,15.86
2018-06-21T23:54:52.326Z,15.71
2018-06-21T23:57:25.903Z,15.57
2018-06-21T23:59:58.137Z,15.56
